createdAt,value
2022-10-22T00:02:20.040Z,100879.97
2022-10-22T00:05:41.679Z,100884.19
2022-10-22T00:09:03.353Z,100889.25
2022-10-22T00:12:25.074Z,100881.78
2022-10-22T00:15:46.620Z,100869.22
2022-10-22T00:19:11.101Z,100875.25
2022-10-22T00:22:32.542Z,100872.25
2022-10-22T00:25:55.270Z,100880.16
2022-10-22T00:29:18.687Z,100886.34
2022-10-22T00:32:40.452Z,100899.59
2022-10-22T00:36:03.491Z,100902.41
2022-10-22T00:39:27.034Z,100913.13
2022-10-22T00:42:48.617Z,100906.66
2022-10-22T00:46:09.990Z,100890.56
2022-10-22T00:49:31.831Z,100886.91
2022-10-22T00:52:56.139Z,100887.72
2022-10-22T00:56:18.690Z,100878.69
2022-10-22T00:59:40.559Z,100871.81
2022-10-22T01:03:03.025Z,100859.25
2022-10-22T01:06:27.723Z,100852.22
2022-10-22T01:10:04.427Z,100850.84
2022-10-22T01:13:36.634Z,100841.97
2022-10-22T01:17:05.947Z,100851.00
2022-10-22T01:20:52.600Z,100865.69
2022-10-22T01:24:36.604Z,100874.00
2022-10-22T01:28:11.574Z,100871.50
2022-10-22T01:31:40.546Z,100869.25
2022-10-22T01:35:05.335Z,100886.50
2022-10-22T01:38:28.165Z,100879.75
2022-10-22T01:41:49.942Z,100872.03
2022-10-22T01:45:13.610Z,100876.84
2022-10-22T01:48:47.278Z,100871.63
2022-10-22T01:52:16.452Z,100870.91
2022-10-22T01:55:47.270Z,100863.06
2022-10-22T01:59:17.333Z,100872.22
2022-10-22T02:02:44.976Z,100881.25
2022-10-22T02:06:15.571Z,100873.22
2022-10-22T02:09:38.895Z,100879.56
2022-10-22T02:13:02.120Z,100872.38
2022-10-22T02:16:28.080Z,100863.34
2022-10-22T02:19:54.766Z,100863.34
2022-10-22T02:23:18.139Z,100867.16
2022-10-22T02:26:43.798Z,100861.81
2022-10-22T02:30:09.708Z,100876.19
2022-10-22T02:33:36.609Z,100887.88
2022-10-22T02:37:00.866Z,100886.22
2022-10-22T02:40:24.262Z,100880.16
2022-10-22T02:43:49.893Z,100877.47
2022-10-22T02:47:11.328Z,100873.00
2022-10-22T02:50:33.023Z,100861.28
2022-10-22T02:53:54.323Z,100865.78
2022-10-22T02:57:17.133Z,100873.81
2022-10-22T03:00:38.584Z,100868.47
2022-10-22T03:04:00.413Z,100876.19
2022-10-22T03:07:21.701Z,100874.38
2022-10-22T03:10:44.330Z,100871.53
2022-10-22T03:14:07.257Z,100881.25
2022-10-22T03:17:28.612Z,100883.78
2022-10-22T03:20:50.558Z,100890.97
2022-10-22T03:24:14.476Z,100886.59
2022-10-22T03:27:37.952Z,100886.75
2022-10-22T03:31:01.494Z,100892.13
2022-10-22T03:34:22.992Z,100886.91
2022-10-22T03:37:44.619Z,100887.06
2022-10-22T03:41:06.181Z,100876.50
2022-10-22T03:44:29.068Z,100887.19
2022-10-22T03:47:52.071Z,100891.72
2022-10-22T03:51:13.625Z,100890.88
2022-10-22T03:54:35.150Z,100892.00
2022-10-22T03:57:56.521Z,100889.31
2022-10-22T04:01:17.921Z,100885.81
2022-10-22T04:04:41.083Z,100883.28
2022-10-22T04:08:02.253Z,100887.81
2022-10-22T04:11:23.588Z,100889.78
2022-10-22T04:14:44.988Z,100886.25
2022-10-22T04:18:06.332Z,100894.28
2022-10-22T04:21:30.992Z,100911.19
2022-10-22T04:24:52.318Z,100919.34
2022-10-22T04:28:14.231Z,100916.16
2022-10-22T04:31:35.750Z,100919.81
2022-10-22T04:34:57.215Z,100918.28
2022-10-22T04:38:19.786Z,100926.47
2022-10-22T04:41:41.039Z,100936.59
2022-10-22T04:45:02.243Z,100928.88
2022-10-22T04:48:23.590Z,100928.72
2022-10-22T04:51:45.336Z,100927.31
2022-10-22T04:55:09.443Z,100919.44
2022-10-22T04:58:31.310Z,100926.63
2022-10-22T05:01:53.463Z,100923.25
2022-10-22T05:05:15.102Z,100922.56
2022-10-22T05:08:37.729Z,100919.19
2022-10-22T05:12:00.912Z,100925.69
2022-10-22T05:15:22.816Z,100926.81
2022-10-22T05:18:46.017Z,100924.22
2022-10-22T05:22:07.916Z,100922.72
2022-10-22T05:25:29.217Z,100922.84
2022-10-22T05:28:53.270Z,100920.31
2022-10-22T05:32:15.288Z,100931.31
2022-10-22T05:35:37.053Z,100929.63
2022-10-22T05:38:58.649Z,100933.13
2022-10-22T05:42:20.071Z,100933.28
2022-10-22T05:45:43.885Z,100932.59
2022-10-22T05:49:07.773Z,100936.25
2022-10-22T05:52:29.544Z,100930.19
2022-10-22T05:55:51.262Z,100934.84
2022-10-22T05:59:13.236Z,100934.13
2022-10-22T06:02:36.531Z,100944.13
2022-10-22T06:05:57.853Z,100939.06
2022-10-22T06:09:24.826Z,100947.09
2022-10-22T06:12:48.643Z,100947.09
2022-10-22T06:16:10.636Z,100945.56
2022-10-22T06:19:33.554Z,100939.53
2022-10-22T06:22:55.146Z,100960.06
2022-10-22T06:26:17.902Z,100956.41
2022-10-22T06:29:39.874Z,100961.03
2022-10-22T06:33:01.691Z,100962.88
2022-10-22T06:36:25.962Z,100972.44
2022-10-22T06:39:47.711Z,100974.28
2022-10-22T06:43:09.592Z,100974.28
2022-10-22T06:46:31.836Z,100979.47
2022-10-22T06:49:53.465Z,100977.50
2022-10-22T06:53:16.162Z,100987.09
2022-10-22T06:56:38.240Z,100989.47
2022-10-22T06:59:59.798Z,100994.66
2022-10-22T07:03:21.733Z,100996.09
2022-10-22T07:06:43.542Z,101002.13
2022-10-22T07:10:07.185Z,100997.19
2022-10-22T07:13:28.636Z,101002.25
2022-10-22T07:16:50.414Z,101007.06
2022-10-22T07:20:12.862Z,101011.13
2022-10-22T07:23:34.294Z,101005.38
2022-10-22T07:26:57.485Z,101011.25
2022-10-22T07:30:19.259Z,101007.31
2022-10-22T07:33:41.752Z,101013.09
2022-10-22T07:37:03.450Z,101018.84
2022-10-22T07:40:25.148Z,101027.28
2022-10-22T07:43:48.640Z,101029.50
2022-10-22T07:47:10.643Z,101028.25
2022-10-22T07:50:32.671Z,101030.47
2022-10-22T07:53:54.577Z,101022.16
2022-10-22T07:57:16.518Z,101026.91
2022-10-22T08:00:39.066Z,101029.31
2022-10-22T08:04:00.273Z,101038.75
2022-10-22T08:07:22.068Z,101040.16
2022-10-22T08:10:44.446Z,101048.56
2022-10-22T08:14:05.979Z,101048.41
2022-10-22T08:17:28.829Z,101054.47
2022-10-22T08:20:51.903Z,101047.13
2022-10-22T08:24:14.038Z,101048.53
2022-10-22T08:27:38.620Z,101050.75
2022-10-22T08:31:00.444Z,101055.13
2022-10-22T08:34:23.134Z,101056.69
2022-10-22T08:37:45.132Z,101062.03
2022-10-22T08:41:13.581Z,101068.22
2022-10-22T08:44:55.548Z,101075.97
2022-10-22T08:48:32.086Z,101071.31
2022-10-22T08:51:58.505Z,101077.22
2022-10-22T08:55:20.876Z,101072.41
2022-10-22T08:58:50.697Z,101072.13
2022-10-22T09:02:25.342Z,101075.19
2022-10-22T09:05:55.572Z,101087.44
2022-10-22T09:09:19.784Z,101084.31
2022-10-22T09:12:42.102Z,101077.66
2022-10-22T09:16:16.258Z,101078.22
2022-10-22T09:19:48.540Z,101086.81
2022-10-22T09:23:33.002Z,101090.06
2022-10-22T09:26:58.045Z,101085.25
2022-10-22T09:30:22.133Z,101088.63
2022-10-22T09:33:45.855Z,101092.13
2022-10-22T09:37:09.365Z,101100.72
2022-10-22T09:40:30.732Z,101107.63
2022-10-22T09:43:53.965Z,101105.63
2022-10-22T09:47:42.766Z,101109.16
2022-10-22T09:51:12.184Z,101115.91
2022-10-22T09:54:41.408Z,101118.44
2022-10-22T09:58:03.028Z,101118.28
2022-10-22T10:01:27.979Z,101119.84
2022-10-22T10:04:51.512Z,101120.38
2022-10-22T10:08:15.179Z,101120.38
2022-10-22T10:11:44.549Z,101120.06
2022-10-22T10:15:18.664Z,101122.28
2022-10-22T10:18:53.646Z,101124.69
2022-10-22T10:22:28.688Z,101124.53
2022-10-22T10:25:58.776Z,101123.53
2022-10-22T10:33:16.317Z,101126.59
2022-10-22T10:36:47.735Z,101120.94
2022-10-22T10:40:25.215Z,101125.00
2022-10-22T10:44:03.043Z,101123.00
2022-10-22T10:47:50.755Z,101128.91
2022-10-22T10:51:27.261Z,101130.44
2022-10-22T10:55:01.514Z,101135.66
2022-10-22T10:58:31.539Z,101139.88
2022-10-22T11:02:11.217Z,101136.88
2022-10-22T11:05:38.939Z,101140.94
2022-10-22T11:09:06.607Z,101133.13
2022-10-22T11:12:34.398Z,101138.03
2022-10-22T11:16:02.164Z,101138.41
2022-10-22T11:19:50.088Z,101131.88
2022-10-22T11:23:19.944Z,101129.88
2022-10-22T11:26:48.759Z,101134.66
2022-10-22T11:30:15.567Z,101137.84
2022-10-22T11:33:45.857Z,101132.66
2022-10-22T11:37:08.259Z,101136.16
2022-10-22T11:40:36.064Z,101134.00
2022-10-22T11:44:05.919Z,101135.53
2022-10-22T11:47:32.965Z,101132.41
2022-10-22T11:50:59.997Z,101129.59
2022-10-22T11:54:33.410Z,101132.78
2022-10-22T11:58:00.125Z,101136.00
2022-10-22T12:01:30.347Z,101139.88
2022-10-22T12:04:53.255Z,101134.53
2022-10-22T12:08:21.856Z,101139.88
2022-10-22T12:11:48.387Z,101137.88
2022-10-22T12:15:25.144Z,101135.59
2022-10-22T12:18:46.897Z,101142.34
2022-10-22T12:22:17.829Z,101143.16
2022-10-22T12:25:39.342Z,101146.53
2022-10-22T12:29:02.042Z,101136.63
2022-10-22T12:32:24.680Z,101133.47
2022-10-22T12:35:49.048Z,101133.13
2022-10-22T12:39:17.043Z,101138.22
2022-10-22T12:42:38.768Z,101136.91
2022-10-22T12:46:01.201Z,101132.88
2022-10-22T12:49:26.628Z,101137.25
2022-10-22T12:52:49.648Z,101143.13
2022-10-22T12:56:16.363Z,101146.22
2022-10-22T12:59:40.333Z,101142.88
2022-10-22T13:03:06.344Z,101145.94
2022-10-22T13:06:29.791Z,101145.44
2022-10-22T13:09:59.363Z,101153.34
2022-10-22T13:13:36.831Z,101156.72
2022-10-22T13:17:07.411Z,101153.56
2022-10-22T13:20:29.165Z,101146.16
2022-10-22T13:23:54.751Z,101147.66
2022-10-22T13:27:16.512Z,101149.69
2022-10-22T13:30:40.877Z,101153.09
2022-10-22T13:34:09.901Z,101151.91
2022-10-22T13:37:35.603Z,101156.81
2022-10-22T13:40:57.725Z,101155.63
2022-10-22T13:44:19.982Z,101162.69
2022-10-22T13:47:45.976Z,101160.72
2022-10-22T13:51:14.702Z,101147.78
2022-10-22T13:54:37.880Z,101149.63
2022-10-22T13:58:04.888Z,101151.31
2022-10-22T14:01:28.862Z,101153.72
2022-10-22T14:04:53.090Z,101158.75
2022-10-22T14:08:17.476Z,101155.06
2022-10-22T14:11:39.019Z,101159.09
2022-10-22T14:15:00.825Z,101155.38
2022-10-22T14:18:27.334Z,101165.81
2022-10-22T14:21:50.528Z,101158.09
2022-10-22T14:25:15.973Z,101164.47
2022-10-22T14:28:46.156Z,101163.97
2022-10-22T14:32:21.241Z,101169.00
2022-10-22T14:35:43.574Z,101173.06
2022-10-22T14:39:06.832Z,101164.66
2022-10-22T14:42:29.592Z,101175.25
2022-10-22T14:45:51.958Z,101169.56
2022-10-22T14:49:13.674Z,101177.16
2022-10-22T14:52:35.499Z,101175.94
2022-10-22T14:55:59.602Z,101183.88
2022-10-22T14:59:21.187Z,101180.00
2022-10-22T15:02:43.273Z,101178.31
2022-10-22T15:06:05.925Z,101192.78
2022-10-22T15:09:27.518Z,101186.56
2022-10-22T15:12:50.715Z,101200.38
2022-10-22T15:16:14.171Z,101201.69
2022-10-22T15:19:35.585Z,101200.50
2022-10-22T15:22:57.655Z,101202.84
2022-10-22T15:26:19.315Z,101203.81
2022-10-22T15:29:43.697Z,101209.16
2022-10-22T15:33:05.561Z,101217.84
2022-10-22T15:36:27.209Z,101219.66
2022-10-22T15:39:49.584Z,101221.63
2022-10-22T15:43:11.968Z,101223.25
2022-10-22T15:46:36.322Z,101218.84
2022-10-22T15:49:57.784Z,101223.47
2022-10-22T15:53:19.722Z,101225.28
2022-10-22T15:56:42.252Z,101227.91
2022-10-22T16:00:03.621Z,101227.00
2022-10-22T16:03:35.446Z,101229.09
2022-10-22T16:06:58.418Z,101236.41
2022-10-22T16:10:19.804Z,101230.09
2022-10-22T16:13:41.053Z,101224.78
2022-10-22T16:17:02.491Z,101244.50
2022-10-22T16:20:25.732Z,101239.88
2022-10-22T16:23:47.418Z,101246.03
2022-10-22T16:27:09.402Z,101246.91
2022-10-22T16:30:30.831Z,101247.00
2022-10-22T16:33:52.488Z,101254.09
2022-10-22T16:37:15.747Z,101248.47
2022-10-22T16:40:37.523Z,101251.91
2022-10-22T16:44:00.845Z,101247.28
2022-10-22T16:47:22.307Z,101251.41
2022-10-22T16:50:43.790Z,101261.84
2022-10-22T16:54:09.737Z,101261.63
2022-10-22T16:57:35.912Z,101262.47
2022-10-22T17:00:57.748Z,101260.50
2022-10-22T17:04:19.397Z,101269.28
2022-10-22T17:07:40.512Z,101267.19
2022-10-22T17:11:08.536Z,101275.78
2022-10-22T17:14:29.872Z,101274.69
2022-10-22T17:17:53.686Z,101280.59
2022-10-22T17:21:15.936Z,101284.41
2022-10-22T17:24:38.800Z,101287.50
2022-10-22T17:28:01.705Z,101299.50
2022-10-22T17:31:25.106Z,101297.53
2022-10-22T17:34:46.640Z,101299.94
2022-10-22T17:38:08.495Z,101305.00
2022-10-22T17:41:31.949Z,101309.22
2022-10-22T17:44:54.893Z,101309.50
2022-10-22T17:48:16.259Z,101318.94
2022-10-22T17:51:37.889Z,101321.03
2022-10-22T17:54:59.648Z,101317.78
2022-10-22T17:58:20.881Z,101324.41
2022-10-22T18:01:45.658Z,101327.38
2022-10-22T18:05:08.108Z,101324.09
2022-10-22T18:08:29.646Z,101329.63
2022-10-22T18:11:53.323Z,101332.53
2022-10-22T18:15:15.027Z,101334.50
2022-10-22T18:18:38.014Z,101334.78
2022-10-22T18:22:00.585Z,101336.03
2022-10-22T18:25:22.738Z,101341.66
2022-10-22T18:28:44.064Z,101336.59
2022-10-22T18:32:12.140Z,101340.50
2022-10-22T18:35:36.132Z,101337.94
2022-10-22T18:38:58.948Z,101342.72
2022-10-22T18:42:20.281Z,101350.03
2022-10-22T18:45:43.844Z,101344.09
2022-10-22T18:49:06.932Z,101357.75
2022-10-22T18:52:29.826Z,101345.50
2022-10-22T18:55:51.203Z,101352.78
2022-10-22T18:59:19.168Z,101345.19
2022-10-22T19:02:41.149Z,101340.09
2022-10-22T19:06:02.920Z,101346.81
2022-10-22T19:09:26.921Z,101350.63
2022-10-22T19:12:48.287Z,101350.84
2022-10-22T19:16:13.519Z,101355.50
2022-10-22T19:19:35.889Z,101357.72
2022-10-22T19:22:57.507Z,101353.34
2022-10-22T19:26:21.457Z,101352.06
2022-10-22T19:29:44.721Z,101352.44
2022-10-22T19:33:07.394Z,101348.34
2022-10-22T19:36:30.143Z,101354.78
2022-10-22T19:39:51.843Z,101349.72
2022-10-22T19:43:18.867Z,101355.78
2022-10-22T19:46:40.906Z,101355.78
2022-10-22T19:50:02.364Z,101358.44
2022-10-22T19:53:23.636Z,101356.03
2022-10-22T19:56:46.709Z,101360.66
2022-10-22T20:00:10.939Z,101359.13
2022-10-22T20:03:32.642Z,101360.94
2022-10-22T20:06:54.017Z,101371.75
2022-10-22T20:10:16.166Z,101376.25
2022-10-22T20:17:02.210Z,101382.81
2022-10-22T20:20:26.392Z,101380.53
2022-10-22T20:23:52.136Z,101391.38
2022-10-22T20:27:14.681Z,101403.28
2022-10-22T20:30:36.991Z,101398.78
2022-10-22T20:34:01.816Z,101394.56
2022-10-22T20:37:23.464Z,101397.59
2022-10-22T20:40:45.658Z,101396.16
2022-10-22T20:44:08.045Z,101405.41
2022-10-22T20:47:39.226Z,101403.09
2022-10-22T20:51:13.476Z,101422.31
2022-10-22T20:54:34.937Z,101416.25
2022-10-22T20:57:56.445Z,101416.34
2022-10-22T21:01:21.808Z,101421.69
2022-10-22T21:04:45.592Z,101435.19
2022-10-22T21:08:10.395Z,101438.84
2022-10-22T21:11:32.923Z,101438.13
2022-10-22T21:14:55.331Z,101439.09
2022-10-22T21:18:16.836Z,101435.56
2022-10-22T21:21:38.838Z,101445.25
2022-10-22T21:25:01.883Z,101444.19
2022-10-22T21:28:23.926Z,101446.84
2022-10-22T21:31:45.380Z,101455.59
2022-10-22T21:35:07.685Z,101452.78
2022-10-22T21:38:29.026Z,101459.69
2022-10-22T21:41:52.165Z,101462.97
2022-10-22T21:45:15.611Z,101458.22
2022-10-22T21:48:40.418Z,101461.59
2022-10-22T21:52:02.964Z,101453.34
2022-10-22T21:55:24.722Z,101462.81
2022-10-22T21:58:48.138Z,101460.63
2022-10-22T22:02:09.499Z,101463.88
2022-10-22T22:05:31.265Z,101467.28
2022-10-22T22:08:54.754Z,101472.25
2022-10-22T22:12:16.646Z,101470.03
2022-10-22T22:15:39.200Z,101475.84
2022-10-22T22:22:26.033Z,101465.09
2022-10-22T22:25:47.375Z,101465.44
2022-10-22T22:29:09.270Z,101468.47
2022-10-22T22:32:32.824Z,101476.06
2022-10-22T22:35:58.507Z,101475.69
2022-10-22T22:39:21.655Z,101473.38
2022-10-22T22:42:43.284Z,101480.97
2022-10-22T22:46:06.505Z,101475.81
2022-10-22T22:49:29.179Z,101469.97
2022-10-22T22:52:50.530Z,101463.50
2022-10-22T22:56:14.811Z,101466.88
2022-10-22T22:59:36.633Z,101457.63
2022-10-22T23:02:57.827Z,101453.25
2022-10-22T23:06:20.565Z,101454.72
2022-10-22T23:09:41.827Z,101445.84
2022-10-22T23:13:03.428Z,101454.72
2022-10-22T23:16:27.078Z,101453.97
2022-10-22T23:19:48.566Z,101455.91
2022-10-22T23:23:11.218Z,101448.03
2022-10-22T23:26:34.988Z,101451.81
2022-10-22T23:29:56.190Z,101452.09
2022-10-22T23:33:19.299Z,101448.84
2022-10-22T23:36:40.960Z,101450.81
2022-10-22T23:40:04.546Z,101452.88
2022-10-22T23:43:27.491Z,101454.25
2022-10-22T23:46:49.266Z,101461.44
2022-10-22T23:50:12.979Z,101467.16
2022-10-22T23:53:35.054Z,101462.19
2022-10-22T23:56:57.906Z,101458.09
